sensor_id;sensor_type;location;lat;lon;timestamp;temperature;humidity
28969;DHT22;16076;51.194;6.642;2022-07-01T00:00:08;15.50;99.90
28969;DHT22;16076;51.194;6.642;2022-07-01T00:02:34;15.50;99.90
28969;DHT22;16076;51.194;6.642;2022-07-01T00:05:00;15.60;99.90
28969;DHT22;16076;51.194;6.642;2022-07-01T00:07:26;15.60;99.90
28969;DHT22;16076;51.194;6.642;2022-07-01T00:09:54;15.60;99.90
28969;DHT22;16076;51.194;6.642;2022-07-01T00:12:20;15.60;99.90
28969;DHT22;16076;51.194;6.642;2022-07-01T00:14:46;15.60;99.90
28969;DHT22;16076;51.194;6.642;2022-07-01T00:17:11;15.60;99.90
28969;DHT22;16076;51.194;6.642;2022-07-01T00:19:37;15.60;99.90
28969;DHT22;16076;51.194;6.642;2022-07-01T00:22:03;15.70;99.90
28969;DHT22;16076;51.194;6.642;2022-07-01T00:24:29;15.70;99.90
28969;DHT22;16076;51.194;6.642;2022-07-01T00:26:57;15.70;99.90
28969;DHT22;16076;51.194;6.642;2022-07-01T00:29:22;15.70;99.90
28969;DHT22;16076;51.194;6.642;2022-07-01T00:31:48;15.70;99.90
28969;DHT22;16076;51.194;6.642;2022-07-01T00:34:14;15.70;99.90
28969;DHT22;16076;51.194;6.642;2022-07-01T00:36:42;15.70;99.90
28969;DHT22;16076;51.194;6.642;2022-07-01T00:39:08;15.70;99.90
28969;DHT22;16076;51.194;6.642;2022-07-01T00:41:33;15.70;99.90
28969;DHT22;16076;51.194;6.642;2022-07-01T00:44:02;15.70;99.90
28969;DHT22;16076;51.194;6.642;2022-07-01T00:46:27;15.70;99.90
28969;DHT22;16076;51.194;6.642;2022-07-01T00:48:55;15.70;99.90
28969;DHT22;16076;51.194;6.642;2022-07-01T00:51:21;15.70;99.90
28969;DHT22;16076;51.194;6.642;2022-07-01T00:53:47;15.70;99.90
28969;DHT22;16076;51.194;6.642;2022-07-01T00:56:13;15.70;99.90
28969;DHT22;16076;51.194;6.642;2022-07-01T00:58:39;15.70;99.90
28969;DHT22;16076;51.194;6.642;2022-07-01T01:01:05;15.70;99.90
28969;DHT22;16076;51.194;6.642;2022-07-01T01:03:33;15.70;99.90
28969;DHT22;16076;51.194;6.642;2022-07-01T01:05:59;15.70;99.90
28969;DHT22;16076;51.194;6.642;2022-07-01T01:08:25;15.70;99.90
28969;DHT22;16076;51.194;6.642;2022-07-01T01:10:53;15.80;99.90
28969;DHT22;16076;51.194;6.642;2022-07-01T01:13:19;15.70;99.90
28969;DHT22;16076;51.194;6.642;2022-07-01T01:15:45;15.70;99.90
28969;DHT22;16076;51.194;6.642;2022-07-01T01:18:11;15.70;99.90
28969;DHT22;16076;51.194;6.642;2022-07-01T01:20:37;15.70;99.90
28969;DHT22;16076;51.194;6.642;2022-07-01T01:23:03;15.70;99.90
28969;DHT22;16076;51.194;6.642;2022-07-01T01:25:33;15.60;99.90
28969;DHT22;16076;51.194;6.642;2022-07-01T01:28:00;15.60;99.90
28969;DHT22;16076;51.194;6.642;2022-07-01T01:30:26;15.60;99.90
28969;DHT22;16076;51.194;6.642;2022-07-01T01:32:52;15.70;99.90
28969;DHT22;16076;51.194;6.642;2022-07-01T01:35:19;15.60;99.90
28969;DHT22;16076;51.194;6.642;2022-07-01T01:37:44;15.60;99.90
28969;DHT22;16076;51.194;6.642;2022-07-01T01:40:11;15.50;99.90
28969;DHT22;16076;51.194;6.642;2022-07-01T01:42:39;15.60;99.90
28969;DHT22;16076;51.194;6.642;2022-07-01T01:45:05;15.50;99.90
28969;DHT22;16076;51.194;6.642;2022-07-01T01:47:31;15.50;99.90
28969;DHT22;16076;51.194;6.642;2022-07-01T01:49:57;15.50;99.90
28969;DHT22;16076;51.194;6.642;2022-07-01T01:52:23;15.40;99.90
28969;DHT22;16076;51.194;6.642;2022-07-01T01:54:49;15.40;99.90
28969;DHT22;16076;51.194;6.642;2022-07-01T01:57:17;15.40;99.90
28969;DHT22;16076;51.194;6.642;2022-07-01T01:59:43;15.30;99.90
28969;DHT22;16076;51.194;6.642;2022-07-01T02:02:08;15.30;99.90
28969;DHT22;16076;51.194;6.642;2022-07-01T02:04:34;15.30;99.90
28969;DHT22;16076;51.194;6.642;2022-07-01T02:07:03;15.30;99.90
28969;DHT22;16076;51.194;6.642;2022-07-01T02:09:31;15.30;99.90
28969;DHT22;16076;51.194;6.642;2022-07-01T02:11:57;15.30;99.90
28969;DHT22;16076;51.194;6.642;2022-07-01T02:14:22;15.30;99.90
28969;DHT22;16076;51.194;6.642;2022-07-01T02:16:48;15.20;99.90
28969;DHT22;16076;51.194;6.642;2022-07-01T02:19:14;15.20;99.90
28969;DHT22;16076;51.194;6.642;2022-07-01T02:21:42;15.20;99.90
28969;DHT22;16076;51.194;6.642;2022-07-01T02:24:11;15.30;99.90
28969;DHT22;16076;51.194;6.642;2022-07-01T02:26:37;15.30;99.90
28969;DHT22;16076;51.194;6.642;2022-07-01T02:29:02;15.40;99.90
28969;DHT22;16076;51.194;6.642;2022-07-01T02:31:31;15.40;99.90
28969;DHT22;16076;51.194;6.642;2022-07-01T02:33:56;15.50;99.90
28969;DHT22;16076;51.194;6.642;2022-07-01T02:36:22;15.60;99.90
28969;DHT22;16076;51.194;6.642;2022-07-01T02:38:48;15.60;99.90
28969;DHT22;16076;51.194;6.642;2022-07-01T02:41:14;15.70;99.90
28969;DHT22;16076;51.194;6.642;2022-07-01T02:43:40;15.70;99.90
28969;DHT22;16076;51.194;6.642;2022-07-01T02:46:05;15.80;99.90
28969;DHT22;16076;51.194;6.642;2022-07-01T02:48:34;15.80;99.90
28969;DHT22;16076;51.194;6.642;2022-07-01T02:51:00;15.80;99.90
28969;DHT22;16076;51.194;6.642;2022-07-01T02:53:25;15.80;99.90
28969;DHT22;16076;51.194;6.642;2022-07-01T02:55:51;15.80;99.90
28969;DHT22;16076;51.194;6.642;2022-07-01T02:58:17;15.80;99.90
28969;DHT22;16076;51.194;6.642;2022-07-01T03:00:43;15.80;99.90
28969;DHT22;16076;51.194;6.642;2022-07-01T03:03:09;15.80;99.90
28969;DHT22;16076;51.194;6.642;2022-07-01T03:05:38;15.80;99.90
28969;DHT22;16076;51.194;6.642;2022-07-01T03:08:04;15.70;99.90
28969;DHT22;16076;51.194;6.642;2022-07-01T03:10:30;15.60;99.90
28969;DHT22;16076;51.194;6.642;2022-07-01T03:12:59;15.60;99.90
28969;DHT22;16076;51.194;6.642;2022-07-01T03:15:26;15.50;99.90
28969;DHT22;16076;51.194;6.642;2022-07-01T03:17:51;15.40;99.90
28969;DHT22;16076;51.194;6.642;2022-07-01T03:20:17;15.40;99.90
28969;DHT22;16076;51.194;6.642;2022-07-01T03:22:46;15.40;99.90
28969;DHT22;16076;51.194;6.642;2022-07-01T03:25:14;15.30;99.90
28969;DHT22;16076;51.194;6.642;2022-07-01T03:27:40;15.30;99.90
28969;DHT22;16076;51.194;6.642;2022-07-01T03:30:11;15.40;99.90
28969;DHT22;16076;51.194;6.642;2022-07-01T03:32:38;15.40;99.90
28969;DHT22;16076;51.194;6.642;2022-07-01T03:35:04;15.50;99.90
28969;DHT22;16076;51.194;6.642;2022-07-01T03:37:50;15.50;99.90
28969;DHT22;16076;51.194;6.642;2022-07-01T03:40:18;15.50;99.90
28969;DHT22;16076;51.194;6.642;2022-07-01T03:42:44;15.50;99.90
28969;DHT22;16076;51.194;6.642;2022-07-01T03:45:10;15.50;99.90
28969;DHT22;16076;51.194;6.642;2022-07-01T03:47:38;15.40;99.90
28969;DHT22;16076;51.194;6.642;2022-07-01T03:50:09;15.40;99.90
28969;DHT22;16076;51.194;6.642;2022-07-01T03:52:35;15.40;99.90
28969;DHT22;16076;51.194;6.642;2022-07-01T03:55:01;15.30;99.90
28969;DHT22;16076;51.194;6.642;2022-07-01T03:57:27;15.30;99.90
28969;DHT22;16076;51.194;6.642;2022-07-01T03:59:53;15.30;99.90
28969;DHT22;16076;51.194;6.642;2022-07-01T04:02:21;15.30;99.90
28969;DHT22;16076;51.194;6.642;2022-07-01T04:04:47;15.30;99.90
28969;DHT22;16076;51.194;6.642;2022-07-01T04:07:15;15.40;99.90
28969;DHT22;16076;51.194;6.642;2022-07-01T04:09:41;15.40;99.90
28969;DHT22;16076;51.194;6.642;2022-07-01T04:12:09;15.40;99.90
28969;DHT22;16076;51.194;6.642;2022-07-01T04:14:37;15.50;99.90
28969;DHT22;16076;51.194;6.642;2022-07-01T04:17:02;15.50;99.90
28969;DHT22;16076;51.194;6.642;2022-07-01T04:19:29;15.50;99.90
28969;DHT22;16076;51.194;6.642;2022-07-01T04:21:54;15.60;99.90
28969;DHT22;16076;51.194;6.642;2022-07-01T04:24:38;15.60;99.90
28969;DHT22;16076;51.194;6.642;2022-07-01T04:27:04;15.60;99.90
28969;DHT22;16076;51.194;6.642;2022-07-01T04:29:30;15.70;99.90
28969;DHT22;16076;51.194;6.642;2022-07-01T04:31:56;15.70;99.90
28969;DHT22;16076;51.194;6.642;2022-07-01T04:34:23;15.60;99.90
28969;DHT22;16076;51.194;6.642;2022-07-01T04:36:49;15.60;99.90
28969;DHT22;16076;51.194;6.642;2022-07-01T04:39:15;15.70;99.90
28969;DHT22;16076;51.194;6.642;2022-07-01T04:41:40;15.70;99.90
28969;DHT22;16076;51.194;6.642;2022-07-01T04:44:25;15.70;99.90
28969;DHT22;16076;51.194;6.642;2022-07-01T04:46:51;15.80;99.90
28969;DHT22;16076;51.194;6.642;2022-07-01T04:49:17;15.80;99.90
28969;DHT22;16076;51.194;6.642;2022-07-01T04:51:45;15.80;99.90
28969;DHT22;16076;51.194;6.642;2022-07-01T04:54:11;15.90;99.90
28969;DHT22;16076;51.194;6.642;2022-07-01T04:56:37;15.90;99.90
28969;DHT22;16076;51.194;6.642;2022-07-01T04:59:03;16.00;99.90
28969;DHT22;16076;51.194;6.642;2022-07-01T05:01:32;16.00;99.90
28969;DHT22;16076;51.194;6.642;2022-07-01T05:03:58;16.00;99.90
28969;DHT22;16076;51.194;6.642;2022-07-01T05:06:24;16.00;99.90
28969;DHT22;16076;51.194;6.642;2022-07-01T05:08:51;16.00;99.90
28969;DHT22;16076;51.194;6.642;2022-07-01T05:11:16;16.10;99.90
28969;DHT22;16076;51.194;6.642;2022-07-01T05:13:42;16.10;99.90
28969;DHT22;16076;51.194;6.642;2022-07-01T05:16:08;16.10;99.90
28969;DHT22;16076;51.194;6.642;2022-07-01T05:18:38;16.10;99.90
28969;DHT22;16076;51.194;6.642;2022-07-01T05:21:23;16.10;99.90
28969;DHT22;16076;51.194;6.642;2022-07-01T05:24:08;16.10;99.90
28969;DHT22;16076;51.194;6.642;2022-07-01T05:26:34;16.10;99.90
28969;DHT22;16076;51.194;6.642;2022-07-01T05:29:00;16.10;99.90
28969;DHT22;16076;51.194;6.642;2022-07-01T05:31:25;16.20;99.90
28969;DHT22;16076;51.194;6.642;2022-07-01T05:33:51;16.30;99.90
28969;DHT22;16076;51.194;6.642;2022-07-01T05:36:17;16.40;99.90
28969;DHT22;16076;51.194;6.642;2022-07-01T05:38:43;16.60;99.90
28969;DHT22;16076;51.194;6.642;2022-07-01T05:41:09;16.80;99.90
28969;DHT22;16076;51.194;6.642;2022-07-01T05:43:34;16.90;99.90
28969;DHT22;16076;51.194;6.642;2022-07-01T05:46:00;17.00;99.90
28969;DHT22;16076;51.194;6.642;2022-07-01T05:48:26;17.10;99.90
28969;DHT22;16076;51.194;6.642;2022-07-01T05:50:52;17.20;99.90
28969;DHT22;16076;51.194;6.642;2022-07-01T05:53:19;17.20;99.90
28969;DHT22;16076;51.194;6.642;2022-07-01T05:55:45;17.30;99.90
28969;DHT22;16076;51.194;6.642;2022-07-01T05:58:14;17.30;99.90
28969;DHT22;16076;51.194;6.642;2022-07-01T06:00:41;17.30;99.90
28969;DHT22;16076;51.194;6.642;2022-07-01T06:03:08;17.20;99.90
28969;DHT22;16076;51.194;6.642;2022-07-01T06:05:34;17.20;99.90
28969;DHT22;16076;51.194;6.642;2022-07-01T06:08:00;17.30;99.90
28969;DHT22;16076;51.194;6.642;2022-07-01T06:10:26;17.40;99.90
28969;DHT22;16076;51.194;6.642;2022-07-01T06:12:51;17.60;99.90
28969;DHT22;16076;51.194;6.642;2022-07-01T06:15:17;17.70;99.90
28969;DHT22;16076;51.194;6.642;2022-07-01T06:17:43;17.90;99.90
28969;DHT22;16076;51.194;6.642;2022-07-01T06:20:09;17.90;99.90
28969;DHT22;16076;51.194;6.642;2022-07-01T06:22:35;17.90;99.90
28969;DHT22;16076;51.194;6.642;2022-07-01T06:25:04;17.90;99.90
28969;DHT22;16076;51.194;6.642;2022-07-01T06:27:37;18.00;99.90
28969;DHT22;16076;51.194;6.642;2022-07-01T06:30:03;18.00;99.90
28969;DHT22;16076;51.194;6.642;2022-07-01T06:32:29;18.10;99.90
28969;DHT22;16076;51.194;6.642;2022-07-01T06:34:55;18.20;99.90
28969;DHT22;16076;51.194;6.642;2022-07-01T06:37:21;18.20;99.90
28969;DHT22;16076;51.194;6.642;2022-07-01T06:39:47;18.30;99.90
28969;DHT22;16076;51.194;6.642;2022-07-01T06:42:13;18.30;99.90
28969;DHT22;16076;51.194;6.642;2022-07-01T06:44:39;18.40;99.90
28969;DHT22;16076;51.194;6.642;2022-07-01T06:47:05;18.40;99.90
28969;DHT22;16076;51.194;6.642;2022-07-01T06:49:33;18.30;99.90
28969;DHT22;16076;51.194;6.642;2022-07-01T06:51:59;18.10;99.90
28969;DHT22;16076;51.194;6.642;2022-07-01T06:54:26;18.10;99.90
28969;DHT22;16076;51.194;6.642;2022-07-01T06:56:54;18.20;99.90
28969;DHT22;16076;51.194;6.642;2022-07-01T06:59:20;18.30;99.90
28969;DHT22;16076;51.194;6.642;2022-07-01T07:01:47;18.50;99.90
28969;DHT22;16076;51.194;6.642;2022-07-01T07:04:15;18.50;99.90
28969;DHT22;16076;51.194;6.642;2022-07-01T07:06:43;18.50;99.90
28969;DHT22;16076;51.194;6.642;2022-07-01T07:09:10;18.40;99.90
28969;DHT22;16076;51.194;6.642;2022-07-01T07:11:36;18.50;99.90
28969;DHT22;16076;51.194;6.642;2022-07-01T07:14:02;18.60;99.90
28969;DHT22;16076;51.194;6.642;2022-07-01T07:16:31;18.80;99.90
28969;DHT22;16076;51.194;6.642;2022-07-01T07:19:00;19.10;99.90
28969;DHT22;16076;51.194;6.642;2022-07-01T07:21:26;19.40;99.90
28969;DHT22;16076;51.194;6.642;2022-07-01T07:23:55;19.60;99.90
28969;DHT22;16076;51.194;6.642;2022-07-01T07:26:21;19.80;99.90
28969;DHT22;16076;51.194;6.642;2022-07-01T07:28:47;19.90;99.90
28969;DHT22;16076;51.194;6.642;2022-07-01T07:31:13;19.90;99.90
28969;DHT22;16076;51.194;6.642;2022-07-01T07:33:38;20.10;99.90
28969;DHT22;16076;51.194;6.642;2022-07-01T07:36:08;20.00;99.90
28969;DHT22;16076;51.194;6.642;2022-07-01T07:38:37;19.90;99.90
28969;DHT22;16076;51.194;6.642;2022-07-01T07:41:03;19.90;99.90
28969;DHT22;16076;51.194;6.642;2022-07-01T07:43:30;19.80;99.90
28969;DHT22;16076;51.194;6.642;2022-07-01T07:45:57;19.90;99.90
28969;DHT22;16076;51.194;6.642;2022-07-01T07:48:24;20.10;99.90
28969;DHT22;16076;51.194;6.642;2022-07-01T07:50:52;20.40;99.90
28969;DHT22;16076;51.194;6.642;2022-07-01T07:53:17;20.60;99.90
28969;DHT22;16076;51.194;6.642;2022-07-01T07:55:44;20.70;99.90
28969;DHT22;16076;51.194;6.642;2022-07-01T07:58:11;20.60;99.90
28969;DHT22;16076;51.194;6.642;2022-07-01T08:00:37;20.50;99.90
28969;DHT22;16076;51.194;6.642;2022-07-01T08:03:03;20.30;99.90
28969;DHT22;16076;51.194;6.642;2022-07-01T08:05:29;20.30;99.90
28969;DHT22;16076;51.194;6.642;2022-07-01T08:07:55;20.50;99.90
28969;DHT22;16076;51.194;6.642;2022-07-01T08:10:20;20.70;99.90
28969;DHT22;16076;51.194;6.642;2022-07-01T08:12:46;20.70;99.90
28969;DHT22;16076;51.194;6.642;2022-07-01T08:15:12;20.60;99.90
28969;DHT22;16076;51.194;6.642;2022-07-01T08:17:40;20.30;99.90
28969;DHT22;16076;51.194;6.642;2022-07-01T08:20:08;20.00;99.90
28969;DHT22;16076;51.194;6.642;2022-07-01T08:22:34;19.80;99.90
28969;DHT22;16076;51.194;6.642;2022-07-01T08:25:00;19.50;99.90
28969;DHT22;16076;51.194;6.642;2022-07-01T08:27:28;19.50;99.90
28969;DHT22;16076;51.194;6.642;2022-07-01T08:29:58;19.40;99.90
28969;DHT22;16076;51.194;6.642;2022-07-01T08:32:24;19.40;99.90
28969;DHT22;16076;51.194;6.642;2022-07-01T08:34:51;19.40;99.90
28969;DHT22;16076;51.194;6.642;2022-07-01T08:37:23;19.60;99.90
28969;DHT22;16076;51.194;6.642;2022-07-01T08:39:55;20.20;99.90
28969;DHT22;16076;51.194;6.642;2022-07-01T08:42:23;20.70;99.90
28969;DHT22;16076;51.194;6.642;2022-07-01T08:44:51;21.00;99.90
28969;DHT22;16076;51.194;6.642;2022-07-01T08:47:20;21.20;99.90
28969;DHT22;16076;51.194;6.642;2022-07-01T08:49:48;21.30;99.90
28969;DHT22;16076;51.194;6.642;2022-07-01T08:52:16;21.30;99.90
28969;DHT22;16076;51.194;6.642;2022-07-01T08:54:42;21.50;99.90
28969;DHT22;16076;51.194;6.642;2022-07-01T08:57:08;21.80;99.90
28969;DHT22;16076;51.194;6.642;2022-07-01T08:59:34;22.00;99.90
28969;DHT22;16076;51.194;6.642;2022-07-01T09:02:02;22.20;99.90
28969;DHT22;16076;51.194;6.642;2022-07-01T09:04:33;22.20;99.90
28969;DHT22;16076;51.194;6.642;2022-07-01T09:07:12;22.30;99.90
28969;DHT22;16076;51.194;6.642;2022-07-01T09:09:39;22.40;99.90
28969;DHT22;16076;51.194;6.642;2022-07-01T09:12:05;22.40;99.90
28969;DHT22;16076;51.194;6.642;2022-07-01T09:14:33;22.50;99.90
28969;DHT22;16076;51.194;6.642;2022-07-01T09:17:01;22.40;99.90
28969;DHT22;16076;51.194;6.642;2022-07-01T09:19:29;22.50;99.90
28969;DHT22;16076;51.194;6.642;2022-07-01T09:21:57;22.60;99.90
28969;DHT22;16076;51.194;6.642;2022-07-01T09:27:10;22.50;99.90
28969;DHT22;16076;51.194;6.642;2022-07-01T09:29:53;22.40;99.90
28969;DHT22;16076;51.194;6.642;2022-07-01T09:32:20;22.30;99.90
28969;DHT22;16076;51.194;6.642;2022-07-01T09:34:50;22.40;99.90
28969;DHT22;16076;51.194;6.642;2022-07-01T09:37:22;22.40;99.90
28969;DHT22;16076;51.194;6.642;2022-07-01T09:39:55;22.70;99.90
28969;DHT22;16076;51.194;6.642;2022-07-01T09:42:24;22.90;99.90
28969;DHT22;16076;51.194;6.642;2022-07-01T09:47:25;23.30;99.90
28969;DHT22;16076;51.194;6.642;2022-07-01T09:49:53;23.20;99.90
28969;DHT22;16076;51.194;6.642;2022-07-01T09:52:19;23.10;99.90
28969;DHT22;16076;51.194;6.642;2022-07-01T09:54:46;23.00;99.90
28969;DHT22;16076;51.194;6.642;2022-07-01T09:57:16;23.00;99.90
28969;DHT22;16076;51.194;6.642;2022-07-01T09:59:42;23.10;99.90
28969;DHT22;16076;51.194;6.642;2022-07-01T10:02:12;23.20;99.90
28969;DHT22;16076;51.194;6.642;2022-07-01T10:04:57;23.40;99.90
28969;DHT22;16076;51.194;6.642;2022-07-01T10:13:16;22.90;99.90
28969;DHT22;16076;51.194;6.642;2022-07-01T10:15:44;23.00;99.80
28969;DHT22;16076;51.194;6.642;2022-07-01T10:18:21;23.00;99.70
28969;DHT22;16076;51.194;6.642;2022-07-01T10:20:54;23.00;99.90
28969;DHT22;16076;51.194;6.642;2022-07-01T10:23:29;23.20;99.90
28969;DHT22;16076;51.194;6.642;2022-07-01T10:26:05;23.30;99.90
28969;DHT22;16076;51.194;6.642;2022-07-01T10:31:09;23.20;99.30
28969;DHT22;16076;51.194;6.642;2022-07-01T10:44:10;23.20;99.50
28969;DHT22;16076;51.194;6.642;2022-07-01T10:46:46;23.20;99.10
28969;DHT22;16076;51.194;6.642;2022-07-01T10:49:13;22.90;99.00
28969;DHT22;16076;51.194;6.642;2022-07-01T10:54:12;23.00;97.40
28969;DHT22;16076;51.194;6.642;2022-07-01T10:56:39;23.10;97.90
28969;DHT22;16076;51.194;6.642;2022-07-01T10:59:06;23.10;98.10
28969;DHT22;16076;51.194;6.642;2022-07-01T11:01:31;23.20;95.70
28969;DHT22;16076;51.194;6.642;2022-07-01T11:03:57;23.30;97.80
28969;DHT22;16076;51.194;6.642;2022-07-01T11:06:25;23.40;97.70
28969;DHT22;16076;51.194;6.642;2022-07-01T11:08:51;23.50;96.70
28969;DHT22;16076;51.194;6.642;2022-07-01T11:11:18;23.70;96.50
28969;DHT22;16076;51.194;6.642;2022-07-01T11:13:45;23.80;95.30
28969;DHT22;16076;51.194;6.642;2022-07-01T11:16:10;23.60;95.00
28969;DHT22;16076;51.194;6.642;2022-07-01T11:18:40;23.30;95.90
28969;DHT22;16076;51.194;6.642;2022-07-01T11:21:09;23.00;96.10
28969;DHT22;16076;51.194;6.642;2022-07-01T11:23:35;22.90;96.60
28969;DHT22;16076;51.194;6.642;2022-07-01T11:26:01;22.90;95.30
28969;DHT22;16076;51.194;6.642;2022-07-01T11:28:27;22.90;97.30
28969;DHT22;16076;51.194;6.642;2022-07-01T11:31:02;23.00;95.20
28969;DHT22;16076;51.194;6.642;2022-07-01T11:33:28;23.30;95.50
28969;DHT22;16076;51.194;6.642;2022-07-01T11:35:54;23.50;95.60
28969;DHT22;16076;51.194;6.642;2022-07-01T11:38:38;23.60;94.50
28969;DHT22;16076;51.194;6.642;2022-07-01T11:41:24;23.90;94.70
28969;DHT22;16076;51.194;6.642;2022-07-01T11:43:55;24.10;95.30
28969;DHT22;16076;51.194;6.642;2022-07-01T11:46:21;24.20;93.80
28969;DHT22;16076;51.194;6.642;2022-07-01T11:48:49;24.10;93.10
28969;DHT22;16076;51.194;6.642;2022-07-01T11:51:19;24.10;92.80
28969;DHT22;16076;51.194;6.642;2022-07-01T11:53:48;24.10;93.00
28969;DHT22;16076;51.194;6.642;2022-07-01T11:56:15;24.20;93.90
28969;DHT22;16076;51.194;6.642;2022-07-01T12:01:10;24.80;91.20
28969;DHT22;16076;51.194;6.642;2022-07-01T12:03:36;24.80;91.80
28969;DHT22;16076;51.194;6.642;2022-07-01T12:06:05;24.80;89.90
28969;DHT22;16076;51.194;6.642;2022-07-01T12:08:32;24.50;90.30
28969;DHT22;16076;51.194;6.642;2022-07-01T12:10:57;24.30;91.40
28969;DHT22;16076;51.194;6.642;2022-07-01T12:13:26;24.10;92.80
28969;DHT22;16076;51.194;6.642;2022-07-01T12:15:52;24.10;92.70
28969;DHT22;16076;51.194;6.642;2022-07-01T12:18:18;24.50;93.40
28969;DHT22;16076;51.194;6.642;2022-07-01T12:20:53;24.90;89.00
28969;DHT22;16076;51.194;6.642;2022-07-01T12:23:19;25.30;90.80
28969;DHT22;16076;51.194;6.642;2022-07-01T12:25:49;25.40;90.20
28969;DHT22;16076;51.194;6.642;2022-07-01T12:28:31;25.20;89.70
28969;DHT22;16076;51.194;6.642;2022-07-01T12:31:08;25.00;89.60
28969;DHT22;16076;51.194;6.642;2022-07-01T12:33:38;24.80;87.60
28969;DHT22;16076;51.194;6.642;2022-07-01T12:36:05;24.80;91.00
28969;DHT22;16076;51.194;6.642;2022-07-01T12:38:32;24.90;89.00
28969;DHT22;16076;51.194;6.642;2022-07-01T12:40:59;24.90;89.70
28969;DHT22;16076;51.194;6.642;2022-07-01T12:43:31;24.80;92.80
28969;DHT22;16076;51.194;6.642;2022-07-01T12:46:00;25.30;92.90
28969;DHT22;16076;51.194;6.642;2022-07-01T12:48:30;25.80;91.50
28969;DHT22;16076;51.194;6.642;2022-07-01T12:51:14;26.30;89.20
28969;DHT22;16076;51.194;6.642;2022-07-01T12:53:41;26.60;84.30
28969;DHT22;16076;51.194;6.642;2022-07-01T12:56:07;26.90;86.40
28969;DHT22;16076;51.194;6.642;2022-07-01T12:58:33;27.20;85.10
28969;DHT22;16076;51.194;6.642;2022-07-01T13:01:00;28.20;82.90
28969;DHT22;16076;51.194;6.642;2022-07-01T13:03:26;28.80;78.40
28969;DHT22;16076;51.194;6.642;2022-07-01T13:05:56;28.60;75.20
28969;DHT22;16076;51.194;6.642;2022-07-01T13:08:22;28.20;75.30
28969;DHT22;16076;51.194;6.642;2022-07-01T13:10:56;27.60;78.20
28969;DHT22;16076;51.194;6.642;2022-07-01T13:13:22;27.70;79.50
28969;DHT22;16076;51.194;6.642;2022-07-01T13:15:50;28.00;76.80
28969;DHT22;16076;51.194;6.642;2022-07-01T13:18:15;28.60;77.20
28969;DHT22;16076;51.194;6.642;2022-07-01T13:20:44;29.70;69.70
28969;DHT22;16076;51.194;6.642;2022-07-01T13:23:13;30.90;67.40
28969;DHT22;16076;51.194;6.642;2022-07-01T13:25:39;31.20;65.80
28969;DHT22;16076;51.194;6.642;2022-07-01T13:28:08;30.60;69.90
28969;DHT22;16076;51.194;6.642;2022-07-01T13:30:34;30.00;68.20
28969;DHT22;16076;51.194;6.642;2022-07-01T13:33:02;29.80;70.80
28969;DHT22;16076;51.194;6.642;2022-07-01T13:35:28;31.00;66.00
28969;DHT22;16076;51.194;6.642;2022-07-01T13:37:53;31.50;64.20
28969;DHT22;16076;51.194;6.642;2022-07-01T13:40:22;31.30;62.40
28969;DHT22;16076;51.194;6.642;2022-07-01T13:42:52;31.30;64.20
28969;DHT22;16076;51.194;6.642;2022-07-01T13:45:18;31.50;61.70
28969;DHT22;16076;51.194;6.642;2022-07-01T13:47:43;31.20;61.20
28969;DHT22;16076;51.194;6.642;2022-07-01T13:50:09;30.40;60.50
28969;DHT22;16076;51.194;6.642;2022-07-01T13:52:36;29.50;63.10
28969;DHT22;16076;51.194;6.642;2022-07-01T13:55:02;28.80;66.90
28969;DHT22;16076;51.194;6.642;2022-07-01T13:57:28;28.70;68.30
28969;DHT22;16076;51.194;6.642;2022-07-01T13:59:56;28.80;67.50
28969;DHT22;16076;51.194;6.642;2022-07-01T14:02:23;28.60;65.50
28969;DHT22;16076;51.194;6.642;2022-07-01T14:04:49;28.30;65.20
28969;DHT22;16076;51.194;6.642;2022-07-01T14:07:17;28.20;64.00
28969;DHT22;16076;51.194;6.642;2022-07-01T14:09:45;27.50;65.30
28969;DHT22;16076;51.194;6.642;2022-07-01T14:12:13;27.20;68.40
28969;DHT22;16076;51.194;6.642;2022-07-01T14:14:41;28.70;67.10
28969;DHT22;16076;51.194;6.642;2022-07-01T14:17:07;30.40;65.30
28969;DHT22;16076;51.194;6.642;2022-07-01T14:19:34;31.60;59.50
28969;DHT22;16076;51.194;6.642;2022-07-01T14:22:00;32.80;61.50
28969;DHT22;16076;51.194;6.642;2022-07-01T14:24:27;34.10;55.70
28969;DHT22;16076;51.194;6.642;2022-07-01T14:26:54;34.80;54.60
28969;DHT22;16076;51.194;6.642;2022-07-01T14:29:20;34.70;54.10
28969;DHT22;16076;51.194;6.642;2022-07-01T14:31:46;34.80;54.80
28969;DHT22;16076;51.194;6.642;2022-07-01T14:34:12;35.10;50.60
28969;DHT22;16076;51.194;6.642;2022-07-01T14:36:40;34.30;50.10
28969;DHT22;16076;51.194;6.642;2022-07-01T14:39:06;33.30;53.80
28969;DHT22;16076;51.194;6.642;2022-07-01T14:41:32;33.70;54.00
28969;DHT22;16076;51.194;6.642;2022-07-01T14:43:57;34.90;50.20
28969;DHT22;16076;51.194;6.642;2022-07-01T14:46:26;35.40;50.60
28969;DHT22;16076;51.194;6.642;2022-07-01T14:48:51;34.80;49.40
28969;DHT22;16076;51.194;6.642;2022-07-01T14:51:17;33.70;50.00
28969;DHT22;16076;51.194;6.642;2022-07-01T14:53:43;33.00;51.00
28969;DHT22;16076;51.194;6.642;2022-07-01T14:56:09;32.80;51.90
28969;DHT22;16076;51.194;6.642;2022-07-01T14:58:37;33.50;54.30
28969;DHT22;16076;51.194;6.642;2022-07-01T15:01:02;34.80;51.50
28969;DHT22;16076;51.194;6.642;2022-07-01T15:03:28;36.30;51.30
28969;DHT22;16076;51.194;6.642;2022-07-01T15:05:54;37.70;48.50
28969;DHT22;16076;51.194;6.642;2022-07-01T15:08:23;38.50;46.80
28969;DHT22;16076;51.194;6.642;2022-07-01T15:10:51;38.90;46.80
28969;DHT22;16076;51.194;6.642;2022-07-01T15:13:16;39.00;44.70
28969;DHT22;16076;51.194;6.642;2022-07-01T15:15:43;38.60;44.40
28969;DHT22;16076;51.194;6.642;2022-07-01T15:18:09;39.10;44.60
28969;DHT22;16076;51.194;6.642;2022-07-01T15:20:37;39.20;42.60
28969;DHT22;16076;51.194;6.642;2022-07-01T15:23:02;38.00;42.80
28969;DHT22;16076;51.194;6.642;2022-07-01T15:25:28;36.80;43.40
28969;DHT22;16076;51.194;6.642;2022-07-01T15:27:54;35.90;46.10
28969;DHT22;16076;51.194;6.642;2022-07-01T15:30:20;36.00;49.10
28969;DHT22;16076;51.194;6.642;2022-07-01T15:32:46;37.10;45.40
28969;DHT22;16076;51.194;6.642;2022-07-01T15:35:14;38.00;44.60
28969;DHT22;16076;51.194;6.642;2022-07-01T15:37:40;39.00;42.30
28969;DHT22;16076;51.194;6.642;2022-07-01T15:40:08;39.20;40.60
28969;DHT22;16076;51.194;6.642;2022-07-01T15:42:37;38.40;40.70
28969;DHT22;16076;51.194;6.642;2022-07-01T15:45:06;36.70;41.40
28969;DHT22;16076;51.194;6.642;2022-07-01T15:47:32;35.80;43.00
28969;DHT22;16076;51.194;6.642;2022-07-01T15:50:16;34.30;44.70
28969;DHT22;16076;51.194;6.642;2022-07-01T15:52:45;32.80;48.50
28969;DHT22;16076;51.194;6.642;2022-07-01T15:55:13;33.10;50.90
28969;DHT22;16076;51.194;6.642;2022-07-01T15:57:43;34.90;47.20
28969;DHT22;16076;51.194;6.642;2022-07-01T16:00:09;36.80;47.50